Terminal Aerodrome Forecast
Issued by NWS Grand Forks, ND

Home | Current Version | Previous Version | Graphics & Text | Print | Product List | Glossary Off
Versions: 1 2 3 4 5 6 7 8 9 10 11 12 13 14 15 16

540
FTUS43 KFGF 260520
TAFFAR
TAF
KFAR 260520Z 2606/2706 21006KT P6SM SCT090
     FM261700 21009KT P6SM SCT250
     FM262300 22006KT P6SM BKN110=

USA.gov is the U.S. government's official web portal to all federal, state and local government web resources and services.